sensor_id;sensor_type;location;lat;lon;timestamp;pressure;altitude;pressure_sealevel;temperature;humidity
48041;BME280;33815;48.386;11.738;2023-02-02T00:01:48;96901.50;;;2.73;99.04
48041;BME280;33815;48.386;11.738;2023-02-02T00:04:16;96896.34;;;2.73;98.09
48041;BME280;33815;48.386;11.738;2023-02-02T00:06:42;96866.50;;;2.71;97.78
48041;BME280;33815;48.386;11.738;2023-02-02T00:09:08;96881.66;;;2.76;99.46
48041;BME280;33815;48.386;11.738;2023-02-02T00:11:34;96874.22;;;2.56;100.00
48041;BME280;33815;48.386;11.738;2023-02-02T00:13:59;96876.16;;;2.53;100.00
48041;BME280;33815;48.386;11.738;2023-02-02T00:18:50;96869.56;;;2.49;100.00
48041;BME280;33815;48.386;11.738;2023-02-02T00:21:15;96874.97;;;2.59;99.36
48041;BME280;33815;48.386;11.738;2023-02-02T00:23:40;96851.81;;;2.59;100.00
48041;BME280;33815;48.386;11.738;2023-02-02T00:26:06;96856.84;;;2.60;99.19
48041;BME280;33815;48.386;11.738;2023-02-02T00:28:31;96850.31;;;2.69;98.64
48041;BME280;33815;48.386;11.738;2023-02-02T00:30:56;96850.47;;;2.80;99.25
48041;BME280;33815;48.386;11.738;2023-02-02T00:33:21;96836.34;;;2.73;98.17
48041;BME280;33815;48.386;11.738;2023-02-02T00:35:47;96845.81;;;2.72;98.04
48041;BME280;33815;48.386;11.738;2023-02-02T00:38:12;96822.75;;;2.71;97.56
48041;BME280;33815;48.386;11.738;2023-02-02T00:40:37;96832.00;;;2.73;98.37
48041;BME280;33815;48.386;11.738;2023-02-02T00:43:02;96827.50;;;2.77;97.70
48041;BME280;33815;48.386;11.738;2023-02-02T00:45:28;96836.50;;;2.84;96.88
48041;BME280;33815;48.386;11.738;2023-02-02T00:47:54;96841.94;;;2.80;97.28
48041;BME280;33815;48.386;11.738;2023-02-02T00:50:20;96835.88;;;2.81;97.03
48041;BME280;33815;48.386;11.738;2023-02-02T00:52:48;96825.50;;;2.68;97.93
48041;BME280;33815;48.386;11.738;2023-02-02T00:55:14;96822.09;;;2.67;98.20
48041;BME280;33815;48.386;11.738;2023-02-02T00:57:40;96843.88;;;2.76;98.39
48041;BME280;33815;48.386;11.738;2023-02-02T01:00:07;96856.09;;;2.72;99.06
48041;BME280;33815;48.386;11.738;2023-02-02T01:02:34;96841.78;;;2.68;98.37
48041;BME280;33815;48.386;11.738;2023-02-02T01:05:01;96833.75;;;2.73;98.89
48041;BME280;33815;48.386;11.738;2023-02-02T01:07:27;96841.69;;;2.70;98.73
48041;BME280;33815;48.386;11.738;2023-02-02T01:09:52;96831.53;;;2.54;99.90
48041;BME280;33815;48.386;11.738;2023-02-02T01:12:17;96811.44;;;2.59;100.00
48041;BME280;33815;48.386;11.738;2023-02-02T01:14:43;96815.53;;;2.49;99.83
48041;BME280;33815;48.386;11.738;2023-02-02T01:17:08;96824.06;;;2.49;100.00
48041;BME280;33815;48.386;11.738;2023-02-02T01:19:33;96824.63;;;2.54;100.00
48041;BME280;33815;48.386;11.738;2023-02-02T01:21:59;96834.34;;;2.49;100.00
48041;BME280;33815;48.386;11.738;2023-02-02T01:24:24;96829.59;;;2.43;100.00
48041;BME280;33815;48.386;11.738;2023-02-02T01:26:49;96811.06;;;2.23;100.00
48041;BME280;33815;48.386;11.738;2023-02-02T01:29:14;96840.06;;;2.26;100.00
48041;BME280;33815;48.386;11.738;2023-02-02T01:31:40;96843.91;;;2.18;100.00
48041;BME280;33815;48.386;11.738;2023-02-02T01:34:06;96808.84;;;2.03;100.00
48041;BME280;33815;48.386;11.738;2023-02-02T01:36:31;96841.06;;;2.09;100.00
48041;BME280;33815;48.386;11.738;2023-02-02T01:38:56;96807.38;;;1.99;100.00
48041;BME280;33815;48.386;11.738;2023-02-02T01:41:23;96808.03;;;1.88;100.00
48041;BME280;33815;48.386;11.738;2023-02-02T01:43:55;96807.09;;;1.89;100.00
48041;BME280;33815;48.386;11.738;2023-02-02T01:46:22;96818.22;;;2.04;100.00
48041;BME280;33815;48.386;11.738;2023-02-02T01:51:30;96807.13;;;2.03;100.00
48041;BME280;33815;48.386;11.738;2023-02-02T01:53:57;96789.47;;;1.97;100.00
48041;BME280;33815;48.386;11.738;2023-02-02T01:56:34;96788.72;;;2.10;100.00
48041;BME280;33815;48.386;11.738;2023-02-02T01:59:01;96786.34;;;2.21;100.00
48041;BME280;33815;48.386;11.738;2023-02-02T02:01:27;96799.09;;;2.22;100.00
48041;BME280;33815;48.386;11.738;2023-02-02T02:03:53;96810.47;;;2.33;100.00
48041;BME280;33815;48.386;11.738;2023-02-02T02:06:19;96790.38;;;2.25;100.00
48041;BME280;33815;48.386;11.738;2023-02-02T02:08:58;96790.53;;;2.36;100.00
48041;BME280;33815;48.386;11.738;2023-02-02T02:11:25;96780.56;;;2.32;100.00
48041;BME280;33815;48.386;11.738;2023-02-02T02:13:53;96810.19;;;2.23;100.00
48041;BME280;33815;48.386;11.738;2023-02-02T02:22:55;96800.19;;;2.33;100.00
48041;BME280;33815;48.386;11.738;2023-02-02T02:29:22;96807.91;;;2.18;100.00
48041;BME280;33815;48.386;11.738;2023-02-02T02:34:33;96796.28;;;1.84;100.00
48041;BME280;33815;48.386;11.738;2023-02-02T02:37:10;96791.84;;;1.86;100.00
48041;BME280;33815;48.386;11.738;2023-02-02T02:39:52;96813.50;;;1.96;100.00
48041;BME280;33815;48.386;11.738;2023-02-02T02:42:22;96816.75;;;2.00;100.00
48041;BME280;33815;48.386;11.738;2023-02-02T02:44:49;96802.50;;;2.09;100.00
48041;BME280;33815;48.386;11.738;2023-02-02T02:47:16;96814.81;;;2.18;100.00
48041;BME280;33815;48.386;11.738;2023-02-02T02:49:43;96811.97;;;2.22;100.00
48041;BME280;33815;48.386;11.738;2023-02-02T02:52:09;96812.88;;;2.21;100.00
48041;BME280;33815;48.386;11.738;2023-02-02T02:54:37;96800.59;;;1.98;100.00
48041;BME280;33815;48.386;11.738;2023-02-02T03:00:26;96805.44;;;1.88;100.00
48041;BME280;33815;48.386;11.738;2023-02-02T03:03:16;96807.75;;;1.93;100.00
48041;BME280;33815;48.386;11.738;2023-02-02T03:06:07;96791.47;;;1.92;100.00
48041;BME280;33815;48.386;11.738;2023-02-02T03:08:39;96802.69;;;1.91;100.00
48041;BME280;33815;48.386;11.738;2023-02-02T03:11:07;96821.59;;;2.04;100.00
48041;BME280;33815;48.386;11.738;2023-02-02T03:13:34;96802.97;;;2.01;100.00
48041;BME280;33815;48.386;11.738;2023-02-02T03:15:59;96812.41;;;2.00;100.00
48041;BME280;33815;48.386;11.738;2023-02-02T03:18:27;96807.09;;;1.89;100.00
48041;BME280;33815;48.386;11.738;2023-02-02T03:20:54;96826.66;;;1.92;100.00
48041;BME280;33815;48.386;11.738;2023-02-02T03:23:19;96821.03;;;1.85;100.00
48041;BME280;33815;48.386;11.738;2023-02-02T03:25:45;96809.38;;;1.79;100.00
48041;BME280;33815;48.386;11.738;2023-02-02T03:28:10;96817.00;;;1.81;100.00
48041;BME280;33815;48.386;11.738;2023-02-02T03:30:37;96828.41;;;1.91;100.00
48041;BME280;33815;48.386;11.738;2023-02-02T03:33:04;96814.06;;;1.73;100.00
48041;BME280;33815;48.386;11.738;2023-02-02T03:35:29;96826.72;;;1.76;100.00
48041;BME280;33815;48.386;11.738;2023-02-02T03:37:55;96805.41;;;1.74;100.00
48041;BME280;33815;48.386;11.738;2023-02-02T03:40:20;96819.84;;;1.76;100.00
48041;BME280;33815;48.386;11.738;2023-02-02T03:42:45;96783.84;;;1.62;100.00
48041;BME280;33815;48.386;11.738;2023-02-02T03:45:11;96797.00;;;1.71;100.00
48041;BME280;33815;48.386;11.738;2023-02-02T03:47:36;96820.22;;;1.70;100.00
48041;BME280;33815;48.386;11.738;2023-02-02T03:50:01;96789.16;;;1.59;100.00
48041;BME280;33815;48.386;11.738;2023-02-02T03:52:27;96805.69;;;1.69;100.00
48041;BME280;33815;48.386;11.738;2023-02-02T03:54:52;96811.22;;;1.77;100.00
48041;BME280;33815;48.386;11.738;2023-02-02T03:57:17;96793.84;;;1.66;100.00
48041;BME280;33815;48.386;11.738;2023-02-02T03:59:43;96806.25;;;1.74;100.00
48041;BME280;33815;48.386;11.738;2023-02-02T04:02:08;96812.28;;;1.59;100.00
48041;BME280;33815;48.386;11.738;2023-02-02T04:04:33;96804.22;;;1.65;100.00
48041;BME280;33815;48.386;11.738;2023-02-02T04:06:58;96796.31;;;1.68;100.00
48041;BME280;33815;48.386;11.738;2023-02-02T04:09:25;96801.22;;;1.73;100.00
48041;BME280;33815;48.386;11.738;2023-02-02T04:11:50;96803.69;;;1.74;100.00
48041;BME280;33815;48.386;11.738;2023-02-02T04:14:16;96822.97;;;1.81;100.00
48041;BME280;33815;48.386;11.738;2023-02-02T04:16:41;96809.38;;;1.79;100.00
48041;BME280;33815;48.386;11.738;2023-02-02T04:19:06;96817.66;;;1.84;100.00
48041;BME280;33815;48.386;11.738;2023-02-02T04:21:32;96810.38;;;1.77;100.00
48041;BME280;33815;48.386;11.738;2023-02-02T04:23:57;96803.13;;;1.69;100.00
48041;BME280;33815;48.386;11.738;2023-02-02T04:26:23;96826.34;;;1.82;100.00
48041;BME280;33815;48.386;11.738;2023-02-02T04:28:52;96818.25;;;1.74;100.00
48041;BME280;33815;48.386;11.738;2023-02-02T04:31:17;96825.97;;;1.74;100.00
48041;BME280;33815;48.386;11.738;2023-02-02T04:33:43;96829.63;;;1.69;100.00
48041;BME280;33815;48.386;11.738;2023-02-02T04:36:08;96842.09;;;1.61;100.00
48041;BME280;33815;48.386;11.738;2023-02-02T04:38:34;96838.97;;;1.56;100.00
48041;BME280;33815;48.386;11.738;2023-02-02T04:41:05;96812.09;;;1.47;100.00
48041;BME280;33815;48.386;11.738;2023-02-02T04:43:33;96805.03;;;1.51;100.00
48041;BME280;33815;48.386;11.738;2023-02-02T04:45:58;96808.84;;;1.44;100.00
48041;BME280;33815;48.386;11.738;2023-02-02T04:48:23;96810.06;;;1.52;100.00
48041;BME280;33815;48.386;11.738;2023-02-02T04:50:48;96814.28;;;1.53;100.00
48041;BME280;33815;48.386;11.738;2023-02-02T04:53:14;96819.25;;;1.57;100.00
48041;BME280;33815;48.386;11.738;2023-02-02T04:55:39;96827.72;;;1.59;100.00
48041;BME280;33815;48.386;11.738;2023-02-02T04:58:04;96810.84;;;1.39;100.00
48041;BME280;33815;48.386;11.738;2023-02-02T05:00:30;96829.34;;;1.60;100.00
48041;BME280;33815;48.386;11.738;2023-02-02T05:02:55;96830.69;;;1.51;100.00
48041;BME280;33815;48.386;11.738;2023-02-02T05:05:20;96852.75;;;1.55;100.00
48041;BME280;33815;48.386;11.738;2023-02-02T05:07:45;96827.13;;;1.53;100.00
48041;BME280;33815;48.386;11.738;2023-02-02T05:10:11;96828.41;;;1.46;100.00
48041;BME280;33815;48.386;11.738;2023-02-02T05:12:36;96826.47;;;1.50;100.00
48041;BME280;33815;48.386;11.738;2023-02-02T05:15:02;96842.38;;;1.57;100.00
48041;BME280;33815;48.386;11.738;2023-02-02T05:17:29;96842.06;;;1.77;100.00
48041;BME280;33815;48.386;11.738;2023-02-02T05:19:54;96837.63;;;1.65;100.00
48041;BME280;33815;48.386;11.738;2023-02-02T05:22:19;96851.94;;;1.69;100.00
48041;BME280;33815;48.386;11.738;2023-02-02T05:24:45;96847.19;;;1.77;100.00
48041;BME280;33815;48.386;11.738;2023-02-02T05:27:10;96858.59;;;1.87;100.00
48041;BME280;33815;48.386;11.738;2023-02-02T05:29:36;96841.41;;;1.74;100.00
48041;BME280;33815;48.386;11.738;2023-02-02T05:32:01;96834.34;;;1.77;100.00
48041;BME280;33815;48.386;11.738;2023-02-02T05:34:26;96823.88;;;1.80;100.00
48041;BME280;33815;48.386;11.738;2023-02-02T05:36:51;96824.44;;;1.85;100.00
48041;BME280;33815;48.386;11.738;2023-02-02T05:39:17;96852.16;;;1.95;100.00
48041;BME280;33815;48.386;11.738;2023-02-02T05:41:42;96850.97;;;2.00;100.00
48041;BME280;33815;48.386;11.738;2023-02-02T05:44:10;96829.59;;;2.00;100.00
48041;BME280;33815;48.386;11.738;2023-02-02T05:46:36;96835.94;;;2.09;100.00
48041;BME280;33815;48.386;11.738;2023-02-02T05:49:01;96849.63;;;2.09;100.00
48041;BME280;33815;48.386;11.738;2023-02-02T05:51:37;96829.78;;;2.11;100.00
48041;BME280;33815;48.386;11.738;2023-02-02T05:54:03;96827.03;;;2.00;100.00
48041;BME280;33815;48.386;11.738;2023-02-02T05:56:29;96854.09;;;2.05;100.00
48041;BME280;33815;48.386;11.738;2023-02-02T05:58:54;96856.59;;;2.07;100.00
48041;BME280;33815;48.386;11.738;2023-02-02T06:01:19;96848.59;;;1.97;100.00
48041;BME280;33815;48.386;11.738;2023-02-02T06:03:45;96857.69;;;2.03;100.00
48041;BME280;33815;48.386;11.738;2023-02-02T06:06:11;96859.53;;;2.01;100.00
48041;BME280;33815;48.386;11.738;2023-02-02T06:08:36;96842.25;;;1.88;100.00
48041;BME280;33815;48.386;11.738;2023-02-02T06:11:12;96858.25;;;1.94;100.00
48041;BME280;33815;48.386;11.738;2023-02-02T06:13:38;96856.78;;;2.04;100.00
48041;BME280;33815;48.386;11.738;2023-02-02T06:16:04;96860.25;;;2.03;100.00
48041;BME280;33815;48.386;11.738;2023-02-02T06:18:30;96836.84;;;1.93;100.00
48041;BME280;33815;48.386;11.738;2023-02-02T06:20:59;96855.88;;;2.05;100.00
48041;BME280;33815;48.386;11.738;2023-02-02T06:23:25;96858.72;;;2.15;100.00
48041;BME280;33815;48.386;11.738;2023-02-02T06:25:50;96837.31;;;2.00;100.00
48041;BME280;33815;48.386;11.738;2023-02-02T06:28:15;96831.97;;;2.03;100.00
48041;BME280;33815;48.386;11.738;2023-02-02T06:30:41;96875.34;;;2.23;100.00
48041;BME280;33815;48.386;11.738;2023-02-02T06:33:06;96859.16;;;2.21;100.00
48041;BME280;33815;48.386;11.738;2023-02-02T06:35:32;96900.22;;;2.23;100.00
48041;BME280;33815;48.386;11.738;2023-02-02T06:37:57;96876.25;;;2.37;100.00
48041;BME280;33815;48.386;11.738;2023-02-02T06:40:23;96875.53;;;2.20;100.00
48041;BME280;33815;48.386;11.738;2023-02-02T06:42:55;96892.78;;;2.33;100.00
48041;BME280;33815;48.386;11.738;2023-02-02T06:45:21;96877.19;;;2.36;100.00
48041;BME280;33815;48.386;11.738;2023-02-02T06:47:46;96870.38;;;2.35;100.00
48041;BME280;33815;48.386;11.738;2023-02-02T06:50:11;96887.09;;;2.28;100.00
48041;BME280;33815;48.386;11.738;2023-02-02T06:52:37;96867.16;;;2.31;100.00
48041;BME280;33815;48.386;11.738;2023-02-02T06:55:02;96881.78;;;2.31;100.00
48041;BME280;33815;48.386;11.738;2023-02-02T06:57:27;96869.44;;;2.21;100.00
48041;BME280;33815;48.386;11.738;2023-02-02T06:59:52;96885.16;;;2.17;100.00
48041;BME280;33815;48.386;11.738;2023-02-02T07:02:18;96895.81;;;2.25;100.00
48041;BME280;33815;48.386;11.738;2023-02-02T07:04:43;96874.16;;;2.15;100.00
48041;BME280;33815;48.386;11.738;2023-02-02T07:07:08;96885.44;;;2.12;100.00
48041;BME280;33815;48.386;11.738;2023-02-02T07:09:34;96901.34;;;2.19;100.00
48041;BME280;33815;48.386;11.738;2023-02-02T07:11:59;96885.63;;;2.09;100.00
48041;BME280;33815;48.386;11.738;2023-02-02T07:14:25;96901.41;;;2.17;100.00
48041;BME280;33815;48.386;11.738;2023-02-02T07:16:51;96910.06;;;2.16;100.00
48041;BME280;33815;48.386;11.738;2023-02-02T07:19:16;96912.72;;;2.15;100.00
48041;BME280;33815;48.386;11.738;2023-02-02T07:21:41;96900.03;;;2.12;100.00
48041;BME280;33815;48.386;11.738;2023-02-02T07:24:06;96911.34;;;2.09;100.00
48041;BME280;33815;48.386;11.738;2023-02-02T07:26:33;96923.81;;;2.15;100.00
48041;BME280;33815;48.386;11.738;2023-02-02T07:28:59;96907.44;;;2.02;100.00
48041;BME280;33815;48.386;11.738;2023-02-02T07:31:25;96915.00;;;2.05;100.00
48041;BME280;33815;48.386;11.738;2023-02-02T07:33:51;96923.91;;;2.14;100.00
48041;BME280;33815;48.386;11.738;2023-02-02T07:36:19;96918.28;;;2.07;100.00
48041;BME280;33815;48.386;11.738;2023-02-02T07:38:46;96932.81;;;2.08;100.00
48041;BME280;33815;48.386;11.738;2023-02-02T07:41:12;96933.53;;;2.10;100.00
48041;BME280;33815;48.386;11.738;2023-02-02T07:43:38;96931.81;;;2.11;100.00
48041;BME280;33815;48.386;11.738;2023-02-02T07:46:05;96923.16;;;2.12;100.00
48041;BME280;33815;48.386;11.738;2023-02-02T07:48:32;96930.63;;;2.16;100.00
48041;BME280;33815;48.386;11.738;2023-02-02T07:51:04;96946.25;;;2.13;100.00
48041;BME280;33815;48.386;11.738;2023-02-02T07:53:30;96954.19;;;2.09;100.00
48041;BME280;33815;48.386;11.738;2023-02-02T07:56:10;96938.13;;;2.05;100.00
48041;BME280;33815;48.386;11.738;2023-02-02T07:58:36;96951.00;;;2.05;100.00
48041;BME280;33815;48.386;11.738;2023-02-02T08:01:04;96951.91;;;2.04;100.00
48041;BME280;33815;48.386;11.738;2023-02-02T08:03:29;96934.34;;;1.96;100.00
48041;BME280;33815;48.386;11.738;2023-02-02T08:05:56;96947.94;;;1.98;100.00
48041;BME280;33815;48.386;11.738;2023-02-02T08:08:21;96937.19;;;1.92;100.00
48041;BME280;33815;48.386;11.738;2023-02-02T08:10:48;96935.81;;;2.00;100.00
48041;BME280;33815;48.386;11.738;2023-02-02T08:13:13;96937.47;;;2.01;100.00
48041;BME280;33815;48.386;11.738;2023-02-02T08:15:38;96947.34;;;2.09;100.00
48041;BME280;33815;48.386;11.738;2023-02-02T08:18:04;96948.56;;;2.02;100.00
48041;BME280;33815;48.386;11.738;2023-02-02T08:20:29;96955.88;;;2.10;100.00
48041;BME280;33815;48.386;11.738;2023-02-02T08:22:55;96945.31;;;2.14;100.00
48041;BME280;33815;48.386;11.738;2023-02-02T08:25:20;96948.63;;;2.16;100.00
48041;BME280;33815;48.386;11.738;2023-02-02T08:27:46;96980.19;;;2.34;100.00
48041;BME280;33815;48.386;11.738;2023-02-02T08:30:11;96955.28;;;2.35;100.00
48041;BME280;33815;48.386;11.738;2023-02-02T08:32:36;96946.06;;;2.31;100.00
48041;BME280;33815;48.386;11.738;2023-02-02T08:35:02;96968.13;;;2.49;100.00
48041;BME280;33815;48.386;11.738;2023-02-02T08:37:27;96965.03;;;2.44;100.00
48041;BME280;33815;48.386;11.738;2023-02-02T08:39:52;96959.31;;;2.39;100.00
48041;BME280;33815;48.386;11.738;2023-02-02T08:42:17;96962.22;;;2.33;100.00
48041;BME280;33815;48.386;11.738;2023-02-02T08:44:43;96963.19;;;2.46;100.00
48041;BME280;33815;48.386;11.738;2023-02-02T08:47:08;96971.38;;;2.38;100.00
48041;BME280;33815;48.386;11.738;2023-02-02T08:49:33;96952.88;;;2.32;100.00
48041;BME280;33815;48.386;11.738;2023-02-02T08:51:58;96960.69;;;2.45;100.00
48041;BME280;33815;48.386;11.738;2023-02-02T08:54:24;96955.75;;;2.42;100.00
48041;BME280;33815;48.386;11.738;2023-02-02T08:56:49;96959.94;;;2.43;100.00
48041;BME280;33815;48.386;11.738;2023-02-02T08:59:14;96966.59;;;2.61;100.00
48041;BME280;33815;48.386;11.738;2023-02-02T09:01:40;96975.88;;;2.64;100.00
48041;BME280;33815;48.386;11.738;2023-02-02T09:04:07;96980.75;;;2.68;100.00
48041;BME280;33815;48.386;11.738;2023-02-02T09:06:38;96984.72;;;2.60;100.00
48041;BME280;33815;48.386;11.738;2023-02-02T09:09:06;96995.00;;;2.60;100.00
48041;BME280;33815;48.386;11.738;2023-02-02T09:11:32;96978.28;;;2.67;100.00
48041;BME280;33815;48.386;11.738;2023-02-02T09:13:58;97001.16;;;2.71;100.00
48041;BME280;33815;48.386;11.738;2023-02-02T09:16:25;96986.63;;;2.70;100.00
48041;BME280;33815;48.386;11.738;2023-02-02T09:18:52;96982.03;;;2.76;100.00
48041;BME280;33815;48.386;11.738;2023-02-02T09:21:18;96990.22;;;2.82;100.00
48041;BME280;33815;48.386;11.738;2023-02-02T09:23:44;96997.09;;;2.82;100.00
48041;BME280;33815;48.386;11.738;2023-02-02T09:26:22;96987.47;;;2.85;100.00
48041;BME280;33815;48.386;11.738;2023-02-02T09:28:51;96985.34;;;2.78;100.00
48041;BME280;33815;48.386;11.738;2023-02-02T09:31:17;97004.66;;;2.85;100.00
48041;BME280;33815;48.386;11.738;2023-02-02T09:33:42;96978.81;;;2.72;100.00
48041;BME280;33815;48.386;11.738;2023-02-02T09:36:13;97010.09;;;2.95;100.00
48041;BME280;33815;48.386;11.738;2023-02-02T09:38:39;97002.25;;;2.82;100.00
48041;BME280;33815;48.386;11.738;2023-02-02T09:47:15;97012.09;;;2.89;100.00
48041;BME280;33815;48.386;11.738;2023-02-02T09:49:53;97030.47;;;2.83;100.00
48041;BME280;33815;48.386;11.738;2023-02-02T09:52:25;96998.41;;;2.74;100.00
48041;BME280;33815;48.386;11.738;2023-02-02T09:54:58;97011.34;;;2.73;100.00
48041;BME280;33815;48.386;11.738;2023-02-02T09:57:32;97008.44;;;2.79;100.00
48041;BME280;33815;48.386;11.738;2023-02-02T10:00:01;97003.34;;;2.78;100.00
48041;BME280;33815;48.386;11.738;2023-02-02T10:02:30;97021.03;;;2.84;100.00
48041;BME280;33815;48.386;11.738;2023-02-02T10:05:04;97024.41;;;2.84;100.00
48041;BME280;33815;48.386;11.738;2023-02-02T10:07:37;97020.94;;;2.85;100.00
48041;BME280;33815;48.386;11.738;2023-02-02T10:10:17;96999.88;;;2.79;100.00
48041;BME280;33815;48.386;11.738;2023-02-02T10:12:53;97018.91;;;2.90;100.00
48041;BME280;33815;48.386;11.738;2023-02-02T10:15:30;97007.78;;;2.90;100.00
48041;BME280;33815;48.386;11.738;2023-02-02T10:20:59;97005.28;;;2.88;100.00
48041;BME280;33815;48.386;11.738;2023-02-02T10:23:39;97008.63;;;2.90;100.00
48041;BME280;33815;48.386;11.738;2023-02-02T10:26:13;97015.41;;;2.91;100.00
48041;BME280;33815;48.386;11.738;2023-02-02T10:31:33;97015.59;;;2.88;100.00
48041;BME280;33815;48.386;11.738;2023-02-02T10:34:24;97001.91;;;2.88;100.00
48041;BME280;33815;48.386;11.738;2023-02-02T10:42:15;97000.34;;;2.85;100.00
48041;BME280;33815;48.386;11.738;2023-02-02T10:44:52;97006.41;;;2.70;100.00
48041;BME280;33815;48.386;11.738;2023-02-02T10:47:25;96987.81;;;2.65;100.00
48041;BME280;33815;48.386;11.738;2023-02-02T10:50:15;96999.69;;;2.82;100.00
48041;BME280;33815;48.386;11.738;2023-02-02T10:52:44;96993.53;;;2.70;100.00
48041;BME280;33815;48.386;11.738;2023-02-02T10:58:22;96976.41;;;2.83;100.00
48041;BME280;33815;48.386;11.738;2023-02-02T11:00:53;96999.97;;;2.91;100.00
48041;BME280;33815;48.386;11.738;2023-02-02T11:03:31;97011.34;;;2.87;100.00
48041;BME280;33815;48.386;11.738;2023-02-02T11:06:01;96991.69;;;2.86;100.00
48041;BME280;33815;48.386;11.738;2023-02-02T11:08:48;96981.84;;;2.79;100.00
48041;BME280;33815;48.386;11.738;2023-02-02T11:11:23;97009.88;;;2.83;100.00
48041;BME280;33815;48.386;11.738;2023-02-02T11:13:55;97004.09;;;2.80;100.00
48041;BME280;33815;48.386;11.738;2023-02-02T11:16:27;96979.56;;;2.60;100.00
48041;BME280;33815;48.386;11.738;2023-02-02T11:18:53;97001.25;;;2.70;100.00
48041;BME280;33815;48.386;11.738;2023-02-02T11:21:22;97003.28;;;2.79;100.00
48041;BME280;33815;48.386;11.738;2023-02-02T11:27:31;97017.97;;;2.77;100.00
48041;BME280;33815;48.386;11.738;2023-02-02T11:37:33;97027.28;;;2.94;100.00
48041;BME280;33815;48.386;11.738;2023-02-02T11:40:22;96999.06;;;2.78;100.00
48041;BME280;33815;48.386;11.738;2023-02-02T11:42:54;97024.22;;;2.87;100.00
48041;BME280;33815;48.386;11.738;2023-02-02T11:45:34;97016.88;;;2.81;100.00
48041;BME280;33815;48.386;11.738;2023-02-02T11:48:20;97028.28;;;2.77;100.00
48041;BME280;33815;48.386;11.738;2023-02-02T11:50:51;97030.41;;;2.85;100.00
48041;BME280;33815;48.386;11.738;2023-02-02T11:53:38;97021.38;;;2.78;100.00
48041;BME280;33815;48.386;11.738;2023-02-02T11:56:09;97027.81;;;2.70;100.00
48041;BME280;33815;48.386;11.738;2023-02-02T11:58:44;97022.13;;;2.65;100.00
48041;BME280;33815;48.386;11.738;2023-02-02T12:01:33;97031.38;;;2.68;100.00
48041;BME280;33815;48.386;11.738;2023-02-02T12:04:02;97036.00;;;2.63;100.00
48041;BME280;33815;48.386;11.738;2023-02-02T12:06:35;97003.16;;;2.52;100.00
48041;BME280;33815;48.386;11.738;2023-02-02T12:09:09;97018.06;;;2.61;100.00
48041;BME280;33815;48.386;11.738;2023-02-02T12:11:55;97015.88;;;2.69;100.00
48041;BME280;33815;48.386;11.738;2023-02-02T12:14:42;97007.69;;;2.63;100.00
48041;BME280;33815;48.386;11.738;2023-02-02T12:29:01;97000.34;;;2.85;100.00
48041;BME280;33815;48.386;11.738;2023-02-02T12:34:31;97007.41;;;2.82;100.00
48041;BME280;33815;48.386;11.738;2023-02-02T12:42:42;97004.19;;;2.78;100.00
48041;BME280;33815;48.386;11.738;2023-02-02T12:48:33;97014.59;;;2.91;100.00
48041;BME280;33815;48.386;11.738;2023-02-02T12:56:49;97014.31;;;2.81;100.00
48041;BME280;33815;48.386;11.738;2023-02-02T12:59:40;97031.59;;;2.79;100.00
48041;BME280;33815;48.386;11.738;2023-02-02T13:08:20;97018.34;;;2.71;100.00
48041;BME280;33815;48.386;11.738;2023-02-02T13:10:59;97013.84;;;2.74;100.00
48041;BME280;33815;48.386;11.738;2023-02-02T13:13:36;97008.69;;;2.74;100.00
48041;BME280;33815;48.386;11.738;2023-02-02T13:16:10;97039.88;;;2.84;100.00
48041;BME280;33815;48.386;11.738;2023-02-02T13:18:54;97027.28;;;2.80;100.00
48041;BME280;33815;48.386;11.738;2023-02-02T13:21:22;97034.00;;;2.82;100.00
48041;BME280;33815;48.386;11.738;2023-02-02T13:23:50;97021.38;;;2.78;100.00
48041;BME280;33815;48.386;11.738;2023-02-02T13:26:24;97026.47;;;2.79;100.00
48041;BME280;33815;48.386;11.738;2023-02-02T13:28:57;97042.34;;;2.86;100.00
48041;BME280;33815;48.386;11.738;2023-02-02T13:31:50;97052.31;;;2.92;100.00
48041;BME280;33815;48.386;11.738;2023-02-02T13:34:41;97038.13;;;2.85;100.00
48041;BME280;33815;48.386;11.738;2023-02-02T13:37:29;97056.59;;;2.91;100.00
48041;BME280;33815;48.386;11.738;2023-02-02T13:40:24;97057.78;;;2.86;100.00
48041;BME280;33815;48.386;11.738;2023-02-02T13:48:55;97063.78;;;2.86;100.00
48041;BME280;33815;48.386;11.738;2023-02-02T13:51:40;97046.47;;;2.74;100.00
48041;BME280;33815;48.386;11.738;2023-02-02T14:02:46;97068.47;;;2.80;100.00
48041;BME280;33815;48.386;11.738;2023-02-02T14:05:37;97063.88;;;2.85;100.00
48041;BME280;33815;48.386;11.738;2023-02-02T14:08:07;97047.97;;;2.78;100.00
48041;BME280;33815;48.386;11.738;2023-02-02T14:11:00;97067.81;;;2.76;100.00
48041;BME280;33815;48.386;11.738;2023-02-02T14:13:40;97073.78;;;2.77;100.00
48041;BME280;33815;48.386;11.738;2023-02-02T14:19:04;97095.97;;;2.79;100.00
48041;BME280;33815;48.386;11.738;2023-02-02T14:26:44;97092.72;;;2.76;100.00
48041;BME280;33815;48.386;11.738;2023-02-02T14:34:30;97089.50;;;2.72;100.00
48041;BME280;33815;48.386;11.738;2023-02-02T14:45:44;97095.38;;;2.74;100.00
48041;BME280;33815;48.386;11.738;2023-02-02T14:48:17;97079.19;;;2.72;100.00
48041;BME280;33815;48.386;11.738;2023-02-02T14:50:50;97093.19;;;2.82;100.00
48041;BME280;33815;48.386;11.738;2023-02-02T14:53:23;97102.84;;;2.79;100.00
48041;BME280;33815;48.386;11.738;2023-02-02T14:56:14;97114.72;;;2.81;100.00
48041;BME280;33815;48.386;11.738;2023-02-02T14:58:45;97083.72;;;2.68;100.00
48041;BME280;33815;48.386;11.738;2023-02-02T15:03:50;97117.47;;;2.78;100.00
48041;BME280;33815;48.386;11.738;2023-02-02T15:14:40;97135.19;;;2.68;100.00
48041;BME280;33815;48.386;11.738;2023-02-02T15:22:33;97143.91;;;2.66;100.00